Time;durP1;ratioP1;P1;durP2;ratioP2;P2;SDS_P1;SDS_P2;PMS_P1;PMS_P2;Temp;Humidity;BMP_temperature;BMP_pressure;BME280_temperature;BME280_humidity;BME280_pressure;Samples;Min_cycle;Max_cycle;Signal;HPM_P1;HPM_P2
2021/06/18 12:21:28;;;;;;;4.07;2.42;;;29.70;79.70;;;;;;5131143;28;20071;-84
2021/06/18 12:24:16;;;;;;;4.88;2.50;;;30.20;78.00;;;;;;5095626;28;102652;-84
2021/06/18 12:26:41;;;;;;;4.85;2.67;;;30.60;74.50;;;;;;5134482;28;20102;-85
2021/06/18 12:32:02;;;;;;;3.60;2.28;;;31.30;73.40;;;;;;5134584;28;20095;-86
2021/06/18 12:34:31;;;;;;;5.30;2.25;;;31.80;71.20;;;;;;5114219;28;20461;-85
2021/06/18 12:36:58;;;;;;;5.72;2.63;;;32.20;68.00;;;;;;5133973;28;20110;-85
2021/06/18 12:39:24;;;;;;;3.78;3.03;;;32.30;68.80;;;;;;5115996;28;20020;-86
2021/06/18 12:41:52;;;;;;;4.57;2.75;;;32.10;67.80;;;;;;5133404;28;20019;-85
2021/06/18 12:44:29;;;;;;;4.32;2.20;;;31.80;67.60;;;;;;5134264;28;20026;-85
2021/06/18 12:46:57;;;;;;;5.15;3.67;;;31.50;68.30;;;;;;5117813;28;20055;-85
2021/06/18 12:49:30;;;;;;;2.88;2.47;;;31.30;69.90;;;;;;5095645;28;20039;-85
2021/06/18 12:52:16;;;;;;;4.28;2.40;;;31.10;70.70;;;;;;5113758;28;20027;-84
2021/06/18 12:54:46;;;;;;;2.75;2.50;;;30.80;71.70;;;;;;5096068;28;20118;-88
2021/06/18 12:57:31;;;;;;;6.53;2.72;;;30.70;71.70;;;;;;5096160;28;20024;-89
2021/06/18 13:00:19;;;;;;;5.88;2.90;;;30.50;72.30;;;;;;5098906;28;20103;-88
2021/06/18 13:03:23;;;;;;;5.18;2.40;;;30.40;73.70;;;;;;5117360;27;20072;-91
2021/06/18 13:05:54;;;;;;;9.20;2.78;;;30.30;73.90;;;;;;5100294;28;20469;-89
2021/06/18 13:08:20;;;;;;;3.58;2.90;;;30.30;74.30;;;;;;5099835;28;20031;-87
2021/06/18 13:10:46;;;;;;;8.00;2.90;;;30.30;73.40;;;;;;5116371;28;20465;-87
2021/06/18 13:13:26;;;;;;;19.30;4.30;;;30.10;73.20;;;;;;5116424;28;20035;-87
2021/06/18 13:15:52;;;;;;;11.27;3.13;;;30.00;74.00;;;;;;5116515;28;20121;-86
2021/06/18 13:18:18;;;;;;;4.22;2.72;;;29.80;74.60;;;;;;5099474;28;20385;-88
2021/06/18 13:20:45;;;;;;;11.40;3.53;;;29.70;75.30;;;;;;5099217;28;20023;-87
2021/06/18 13:23:29;;;;;;;6.90;2.65;;;29.50;76.60;;;;;;5099403;28;20044;-87
2021/06/18 13:26:10;;;;;;;3.63;2.70;;;29.50;75.50;;;;;;5117483;28;20368;-87
2021/06/18 13:28:44;;;;;;;4.47;2.80;;;29.40;75.20;;;;;;5099258;28;20019;-87
2021/06/18 13:31:22;;;;;;;4.40;2.70;;;29.30;76.80;;;;;;5117428;28;20065;-86
2021/06/18 13:33:52;;;;;;;3.53;2.67;;;29.10;76.50;;;;;;5098736;28;20035;-87
2021/06/18 13:36:39;;;;;;;2.90;2.70;;;28.90;77.80;;;;;;5098796;28;20483;-87
2021/06/18 13:39:21;;;;;;;3.38;3.00;;;28.60;78.40;;;;;;5117576;28;20028;-87
2021/06/18 13:41:47;;;;;;;4.15;2.70;;;28.30;81.20;;;;;;5099010;28;20462;-86
2021/06/18 13:44:15;;;;;;;4.75;2.60;;;28.10;81.70;;;;;;5098512;28;20036;-86
2021/06/18 13:46:40;;;;;;;5.22;3.20;;;27.90;82.10;;;;;;5098658;28;20373;-87
2021/06/18 13:49:09;;;;;;;5.28;2.60;;;27.80;82.20;;;;;;5116842;28;20103;-86
2021/06/18 13:51:42;;;;;;;4.53;2.95;;;27.60;83.40;;;;;;5116895;28;20081;-87
2021/06/18 13:54:08;;;;;;;5.03;2.80;;;27.40;84.60;;;;;;5116928;28;20473;-87
2021/06/18 13:56:38;;;;;;;3.22;2.92;;;27.20;85.10;;;;;;5098327;28;20028;-87
2021/06/18 13:59:04;;;;;;;2.67;2.45;;;27.20;85.80;;;;;;5098552;28;20016;-86
2021/06/18 14:01:30;;;;;;;3.03;2.63;;;27.30;86.70;;;;;;5116892;28;20095;-87
2021/06/18 14:04:00;;;;;;;4.60;2.85;;;27.60;85.80;;;;;;5098074;28;20114;-87
2021/06/18 14:06:26;;;;;;;4.47;2.78;;;27.90;84.80;;;;;;5098238;28;20884;-87
2021/06/18 14:08:52;;;;;;;4.22;2.80;;;28.00;84.40;;;;;;5098470;28;20126;-86
2021/06/18 14:11:23;;;;;;;4.07;2.45;;;28.00;84.40;;;;;;5116120;28;20026;-86
2021/06/18 14:13:51;;;;;;;3.40;2.35;;;28.20;85.30;;;;;;5098082;28;20032;-87
2021/06/18 14:16:17;;;;;;;3.55;2.70;;;28.50;84.30;;;;;;5098245;28;20122;-88
2021/06/18 14:18:43;;;;;;;4.25;2.67;;;28.90;84.20;;;;;;5098287;28;20443;-87
2021/06/18 14:21:08;;;;;;;3.90;2.40;;;29.10;81.20;;;;;;5081527;28;20449;-87
2021/06/18 14:23:39;;;;;;;3.88;2.63;;;29.30;79.00;;;;;;5098045;28;20040;-87
2021/06/18 14:26:07;;;;;;;3.25;2.60;;;29.20;79.20;;;;;;5098003;28;20025;-87
2021/06/18 14:28:32;;;;;;;3.90;2.35;;;29.10;79.50;;;;;;5097941;28;20030;-87
2021/06/18 14:31:01;;;;;;;6.85;2.47;;;29.10;78.90;;;;;;5116177;28;20051;-87
2021/06/18 14:33:30;;;;;;;4.17;2.23;;;29.00;78.20;;;;;;5116074;27;20016;-87
2021/06/18 14:35:55;;;;;;;6.03;2.42;;;28.80;78.90;;;;;;5097748;28;20283;-87
2021/06/18 14:38:21;;;;;;;3.10;2.60;;;28.70;78.90;;;;;;5097150;28;20063;-87
2021/06/18 14:40:47;;;;;;;3.58;2.50;;;28.60;78.70;;;;;;5114709;28;20020;-87
2021/06/18 14:43:15;;;;;;;3.45;2.35;;;28.30;79.10;;;;;;5115688;28;20465;-86
2021/06/18 14:45:41;;;;;;;8.80;3.00;;;28.10;79.70;;;;;;5097961;28;20020;-86
2021/06/18 14:48:14;;;;;;;5.25;2.88;;;27.90;81.70;;;;;;5097621;28;20028;-87
2021/06/18 14:50:41;;;;;;;6.20;3.00;;;27.70;83.90;;;;;;5114832;28;20024;-91
2021/06/18 14:53:08;;;;;;;4.53;2.80;;;27.50;86.10;;;;;;5098315;28;20038;-94
2021/06/18 14:55:35;;;;;;;4.60;3.00;;;27.30;88.70;;;;;;5117344;27;20023;-92
2021/06/18 15:05:46;;;;;;;6.32;3.17;;;26.70;91.20;;;;;;5071779;22;20060;-92
2021/06/18 15:08:12;;;;;;;3.88;2.85;;;26.50;91.80;;;;;;5020205;28;20123;-85
2021/06/18 15:10:42;;;;;;;4.38;3.00;;;26.40;91.70;;;;;;5033457;28;20020;-86
2021/06/18 15:13:09;;;;;;;4.70;3.40;;;26.40;91.70;;;;;;5043028;28;20118;-87
2021/06/18 15:15:35;;;;;;;3.33;3.03;;;26.30;91.90;;;;;;5036608;28;20029;-87
2021/06/18 15:18:01;;;;;;;3.25;2.90;;;26.20;92.00;;;;;;5035931;28;20029;-87
2021/06/18 15:20:29;;;;;;;3.97;3.00;;;26.10;92.10;;;;;;5054656;28;20027;-87
2021/06/18 15:26:17;;;;;;;3.03;2.78;;;26.10;91.80;;;;;;5046073;28;20056;-90
2021/06/18 15:28:45;;;;;;;5.72;3.13;;;26.00;92.10;;;;;;5035412;28;20459;-91
2021/06/18 15:31:11;;;;;;;5.13;3.72;;;26.10;92.20;;;;;;5036723;28;20028;-87
2021/06/18 15:33:37;;;;;;;5.35;3.30;;;26.10;91.90;;;;;;5036310;28;20025;-86
2021/06/18 15:36:03;;;;;;;5.22;3.22;;;26.10;92.00;;;;;;5054723;28;20028;-88
2021/06/18 15:38:29;;;;;;;3.70;3.08;;;26.10;92.20;;;;;;5053569;28;20167;-88
2021/06/18 15:40:55;;;;;;;3.35;3.05;;;26.10;92.30;;;;;;5049159;28;20120;-87
2021/06/18 15:43:21;;;;;;;5.10;3.30;;;26.10;92.30;;;;;;5057121;28;20025;-87
2021/06/18 15:45:49;;;;;;;3.35;3.10;;;26.10;92.30;;;;;;5074206;28;20029;-90
2021/06/18 15:48:15;;;;;;;3.65;3.30;;;26.10;92.00;;;;;;5056818;28;20082;-90
2021/06/18 15:50:41;;;;;;;3.88;3.33;;;26.10;91.80;;;;;;5057581;28;20024;-90
2021/06/18 15:53:08;;;;;;;8.57;3.65;;;26.10;91.50;;;;;;5057026;28;20052;-91
2021/06/18 15:55:33;;;;;;;4.47;3.53;;;26.10;91.60;;;;;;5056794;28;20477;-92
2021/06/18 15:57:59;;;;;;;3.25;3.00;;;25.90;91.70;;;;;;5056678;28;20028;-92
2021/06/18 16:00:25;;;;;;;4.80;3.25;;;25.90;91.70;;;;;;5056656;28;20025;-88
2021/06/18 16:02:53;;;;;;;4.50;3.45;;;25.80;91.80;;;;;;5048505;28;20028;-90
2021/06/18 16:05:21;;;;;;;4.20;3.00;;;25.80;91.90;;;;;;5036289;28;20541;-90
2021/06/18 16:07:47;;;;;;;5.28;3.08;;;25.90;91.80;;;;;;5036595;28;20025;-92
2021/06/18 16:10:13;;;;;;;3.85;3.55;;;25.90;91.70;;;;;;5036406;28;20025;-91
2021/06/18 16:12:39;;;;;;;3.40;3.10;;;26.00;91.70;;;;;;5036497;28;20064;-92
2021/06/18 16:15:06;;;;;;;3.60;3.30;;;26.00;91.50;;;;;;5037076;28;20036;-94
2021/06/18 16:17:32;;;;;;;3.88;3.28;;;26.00;91.40;;;;;;5036270;28;20064;-90
2021/06/18 16:19:58;;;;;;;5.60;3.28;;;26.00;91.30;;;;;;5037272;28;20024;-91
2021/06/18 16:22:24;;;;;;;3.20;2.95;;;25.90;91.50;;;;;;5037194;28;20126;-91
2021/06/18 16:24:50;;;;;;;3.13;2.92;;;25.90;91.60;;;;;;5036831;28;20455;-91
2021/06/18 16:27:16;;;;;;;3.88;3.28;;;25.80;91.70;;;;;;5040069;28;20078;-89
2021/06/18 16:29:42;;;;;;;3.30;3.00;;;25.80;91.70;;;;;;5052594;28;20108;-91
2021/06/18 16:32:08;;;;;;;3.17;2.80;;;25.70;91.70;;;;;;5030576;28;20321;-91
2021/06/18 16:34:34;;;;;;;3.15;2.95;;;25.60;91.80;;;;;;5020140;28;20112;-91
2021/06/18 16:37:01;;;;;;;3.20;3.00;;;25.60;92.10;;;;;;5020460;28;20026;-91
2021/06/18 16:39:26;;;;;;;3.72;3.42;;;25.60;92.00;;;;;;5020191;28;20025;-92
2021/06/18 16:41:52;;;;;;;6.25;3.22;;;25.50;92.10;;;;;;5019982;28;20095;-91
2021/06/18 16:44:18;;;;;;;3.00;2.80;;;25.40;92.20;;;;;;5020616;28;20025;-92
2021/06/18 16:46:44;;;;;;;3.83;3.20;;;25.40;92.20;;;;;;5020612;28;20025;-91
2021/06/18 16:49:10;;;;;;;3.65;3.30;;;25.30;92.30;;;;;;5020409;28;20033;-91
2021/06/18 16:51:36;;;;;;;4.43;4.03;;;25.30;92.30;;;;;;5020489;28;20111;-92
2021/06/18 16:54:02;;;;;;;4.40;3.60;;;25.20;92.40;;;;;;5020714;28;20064;-92
2021/06/18 16:56:28;;;;;;;3.38;3.08;;;25.20;92.70;;;;;;5036065;28;20090;-92
2021/06/18 16:58:54;;;;;;;5.00;3.67;;;25.20;92.90;;;;;;5040190;28;20046;-92
2021/06/18 17:01:20;;;;;;;3.85;3.40;;;25.10;93.20;;;;;;5039897;28;20013;-92
2021/06/18 17:03:46;;;;;;;3.95;3.63;;;25.00;93.40;;;;;;5057688;28;20371;-92
2021/06/18 17:06:12;;;;;;;7.30;4.22;;;24.90;93.40;;;;;;5040039;28;20195;-92
2021/06/18 17:08:39;;;;;;;4.50;4.10;;;24.90;93.00;;;;;;5053645;28;20025;-92
2021/06/18 17:11:08;;;;;;;4.40;4.00;;;24.90;93.00;;;;;;5056676;28;20021;-92
2021/06/18 17:13:43;;;;;;;4.30;3.80;;;24.90;93.00;;;;;;5056688;28;20079;-92
2021/06/18 17:16:10;;;;;;;4.03;3.63;;;24.90;93.30;;;;;;5056364;28;20024;-92
2021/06/18 17:18:38;;;;;;;5.40;4.00;;;24.80;93.50;;;;;;5056377;28;20028;-91
2021/06/18 17:21:06;;;;;;;8.00;4.03;;;24.80;93.70;;;;;;5056108;28;20033;-89
2021/06/18 17:23:31;;;;;;;305.45;62.20;;;24.80;93.90;;;;;;5056175;28;20032;-88
2021/06/18 17:25:58;;;;;;;28.45;10.65;;;24.80;94.00;;;;;;5055963;28;20025;-87
2021/06/18 17:28:24;;;;;;;11.43;6.25;;;24.80;93.90;;;;;;5055851;28;20067;-88
2021/06/18 17:30:50;;;;;;;7.13;4.25;;;24.80;93.70;;;;;;5054284;28;20052;-87
2021/06/18 17:33:15;;;;;;;7.68;4.65;;;24.80;93.80;;;;;;5056166;28;20029;-88
2021/06/18 17:35:41;;;;;;;8.60;5.50;;;24.80;93.80;;;;;;5055581;28;20029;-87
2021/06/18 17:38:07;;;;;;;8.50;4.60;;;24.60;93.90;;;;;;5055413;28;20064;-88
2021/06/18 17:40:33;;;;;;;12.50;6.13;;;24.60;94.10;;;;;;5055703;28;20029;-88
2021/06/18 17:42:59;;;;;;;9.68;4.63;;;24.60;94.20;;;;;;5055286;28;20022;-92
2021/06/18 17:45:25;;;;;;;376.55;77.05;;;24.60;94.40;;;;;;5054248;28;20025;-91
2021/06/18 17:47:51;;;;;;;17.25;7.40;;;24.50;94.70;;;;;;5044642;28;20036;-90
2021/06/18 17:50:17;;;;;;;11.15;6.45;;;24.50;94.80;;;;;;5039442;28;20033;-89
2021/06/18 17:52:42;;;;;;;7.00;4.70;;;24.40;95.00;;;;;;5038726;28;20032;-90
2021/06/18 17:55:10;;;;;;;6.43;5.35;;;24.30;95.20;;;;;;5039514;28;20040;-92
2021/06/18 17:57:36;;;;;;;5.43;4.70;;;24.30;95.40;;;;;;5039003;28;20486;-91
2021/06/18 18:00:04;;;;;;;8.77;4.75;;;24.20;95.60;;;;;;5038935;28;20021;-91
2021/06/18 18:02:30;;;;;;;5.03;4.57;;;24.20;95.90;;;;;;5038835;28;20029;-89
2021/06/18 18:04:55;;;;;;;5.28;4.07;;;24.10;96.00;;;;;;5056280;28;20031;-90
2021/06/18 18:07:23;;;;;;;4.00;3.63;;;24.00;96.10;;;;;;5041706;28;20037;-88
2021/06/18 18:09:50;;;;;;;4.43;4.00;;;24.00;96.30;;;;;;5055145;28;20112;-89
2021/06/18 18:12:15;;;;;;;5.57;4.53;;;23.90;96.50;;;;;;5055268;28;20021;-86
2021/06/18 18:14:41;;;;;;;4.95;4.53;;;23.80;96.60;;;;;;5055340;28;20079;-88
2021/06/18 18:17:07;;;;;;;4.78;4.38;;;23.80;96.80;;;;;;5053726;28;20068;-88
2021/06/18 18:19:37;;;;;;;9.45;5.25;;;23.70;97.00;;;;;;5055032;28;20028;-88
2021/06/18 18:22:03;;;;;;;4.45;4.05;;;23.70;97.20;;;;;;5055327;28;20056;-89
2021/06/18 18:24:28;;;;;;;4.45;4.00;;;23.60;97.20;;;;;;5055365;28;20029;-89
2021/06/18 18:26:54;;;;;;;5.78;4.53;;;23.60;97.40;;;;;;5055111;28;20390;-90
2021/06/18 18:29:20;;;;;;;4.70;3.80;;;23.50;97.60;;;;;;5055020;28;20044;-89
2021/06/18 18:31:47;;;;;;;5.18;4.22;;;23.50;97.70;;;;;;5055170;28;20036;-88
2021/06/18 18:34:13;;;;;;;4.70;4.30;;;23.40;97.80;;;;;;5054955;28;20074;-87
2021/06/18 18:36:38;;;;;;;4.28;3.63;;;23.40;97.90;;;;;;5054183;28;20131;-87
2021/06/18 18:39:04;;;;;;;3.90;3.60;;;23.40;98.00;;;;;;5055604;28;20025;-87
2021/06/18 18:41:30;;;;;;;4.40;3.63;;;23.30;98.10;;;;;;5054588;28;20449;-87
2021/06/18 18:43:56;;;;;;;4.78;4.30;;;23.30;98.20;;;;;;5053385;28;20021;-87
2021/06/18 18:46:21;;;;;;;4.90;4.40;;;23.30;98.30;;;;;;5054100;28;20048;-87
2021/06/18 18:48:49;;;;;;;3.78;3.47;;;23.30;98.30;;;;;;5052856;28;20079;-87
2021/06/18 18:51:15;;;;;;;4.53;4.13;;;23.20;98.30;;;;;;5055139;28;20359;-88
2021/06/18 18:53:41;;;;;;;4.10;3.72;;;23.20;98.40;;;;;;5054255;28;20021;-88
2021/06/18 18:56:06;;;;;;;4.35;3.90;;;23.20;98.50;;;;;;5054782;28;20037;-92
2021/06/18 19:01:27;;;;;;;5.25;4.28;;;23.10;98.60;;;;;;5046939;28;20036;-88
2021/06/18 19:03:53;;;;;;;4.75;4.05;;;23.10;98.70;;;;;;5053300;28;20029;-86
2021/06/18 19:06:19;;;;;;;7.57;4.88;;;23.10;98.70;;;;;;5050753;28;20118;-84
2021/06/18 19:09:13;;;;;;;4.30;3.90;;;23.10;98.90;;;;;;5053460;28;20467;-88
2021/06/18 19:11:39;;;;;;;5.00;4.50;;;23.00;98.80;;;;;;5070847;28;20033;-88
2021/06/18 19:14:05;;;;;;;5.78;5.28;;;23.00;98.90;;;;;;5054678;28;20043;-88
2021/06/18 19:16:30;;;;;;;5.55;5.05;;;23.00;99.00;;;;;;5053816;28;20028;-88
2021/06/18 19:18:56;;;;;;;5.75;4.57;;;23.00;99.10;;;;;;5053928;28;20028;-88
2021/06/18 19:21:22;;;;;;;5.53;4.53;;;23.00;99.20;;;;;;5054167;28;20343;-85
2021/06/18 19:23:48;;;;;;;4.97;4.57;;;23.10;99.30;;;;;;5053274;28;20463;-85
2021/06/18 19:26:14;;;;;;;6.47;4.63;;;23.10;99.30;;;;;;5053183;28;20021;-85
2021/06/18 19:28:41;;;;;;;4.90;4.50;;;23.10;99.30;;;;;;5037974;28;20029;-85
2021/06/18 19:31:06;;;;;;;5.22;4.72;;;23.10;99.30;;;;;;5036772;28;20029;-87
2021/06/18 19:33:32;;;;;;;5.13;4.63;;;23.20;99.30;;;;;;5036456;28;20054;-87
2021/06/18 19:35:58;;;;;;;5.13;4.65;;;23.20;99.40;;;;;;5036456;28;20025;-87
2021/06/18 19:38:24;;;;;;;5.57;5.07;;;23.20;99.40;;;;;;5036362;28;20025;-85
2021/06/18 19:40:49;;;;;;;5.90;5.00;;;23.30;99.40;;;;;;5054734;28;20029;-91
2021/06/18 19:43:15;;;;;;;7.55;4.78;;;23.30;99.40;;;;;;5037181;28;20071;-91
2021/06/18 19:45:41;;;;;;;5.38;4.97;;;23.30;99.40;;;;;;5037622;28;20027;-91
2021/06/18 19:48:07;;;;;;;7.88;5.72;;;23.40;99.50;;;;;;5039153;28;20115;-92
2021/06/18 19:50:33;;;;;;;6.72;6.03;;;23.40;99.50;;;;;;5054062;28;20024;-92
2021/06/18 19:53:00;;;;;;;9.68;8.57;;;23.40;99.60;;;;;;5053700;28;20475;-91
2021/06/18 19:55:26;;;;;;;16.65;13.10;;;23.50;99.50;;;;;;5053742;28;20025;-93
2021/06/18 19:57:52;;;;;;;24.25;14.20;;;23.50;99.50;;;;;;5042521;28;20036;-93
2021/06/18 20:00:18;;;;;;;13.15;11.85;;;23.50;99.60;;;;;;5036620;28;20021;-87
2021/06/18 20:02:44;;;;;;;13.70;10.45;;;23.50;99.60;;;;;;5037117;28;20029;-87
2021/06/18 20:05:10;;;;;;;10.73;8.75;;;23.50;99.60;;;;;;5052721;28;20094;-86
2021/06/18 20:07:41;;;;;;;8.48;7.68;;;23.50;99.60;;;;;;5035998;28;20033;-87
2021/06/18 20:10:08;;;;;;;9.25;7.88;;;23.60;99.70;;;;;;5036071;28;20493;-87
2021/06/18 20:12:34;;;;;;;6.88;6.18;;;23.60;99.70;;;;;;5036060;28;20112;-86
2021/06/18 20:14:59;;;;;;;7.50;5.20;;;23.60;99.70;;;;;;5036488;28;20136;-90
2021/06/18 20:17:25;;;;;;;6.35;4.78;;;23.60;99.60;;;;;;5054488;28;20029;-91
2021/06/18 20:19:51;;;;;;;5.45;4.78;;;23.50;99.60;;;;;;5036489;28;20498;-90
2021/06/18 20:22:17;;;;;;;4.97;4.47;;;23.60;99.60;;;;;;5036419;28;20021;-90
2021/06/18 20:24:42;;;;;;;4.60;4.20;;;23.50;99.50;;;;;;5036594;28;20024;-90
2021/06/18 20:27:08;;;;;;;5.25;4.05;;;23.50;99.40;;;;;;5042512;28;20124;-90
2021/06/18 20:29:34;;;;;;;3.80;3.50;;;23.50;99.30;;;;;;5053189;28;20051;-90
2021/06/18 20:32:00;;;;;;;3.63;3.33;;;23.50;99.20;;;;;;5053501;28;20051;-90
2021/06/18 20:34:28;;;;;;;5.30;3.30;;;23.50;99.20;;;;;;5053182;28;20025;-91
2021/06/18 20:36:54;;;;;;;3.83;3.50;;;23.50;99.10;;;;;;5052947;28;20025;-91
2021/06/18 20:39:20;;;;;;;5.78;3.40;;;23.50;98.90;;;;;;5053068;28;20021;-90
2021/06/18 20:41:46;;;;;;;4.35;3.28;;;23.50;98.70;;;;;;5052955;28;20079;-90
2021/06/18 20:44:11;;;;;;;4.45;3.08;;;23.60;98.60;;;;;;5051364;28;20028;-86
2021/06/18 20:46:37;;;;;;;4.35;3.03;;;23.50;98.50;;;;;;5052789;28;20539;-86
2021/06/18 20:49:03;;;;;;;3.20;2.88;;;23.50;98.30;;;;;;5051890;28;20048;-86
2021/06/18 20:51:30;;;;;;;2.72;2.30;;;23.50;98.20;;;;;;5053646;28;20032;-86
2021/06/18 20:53:56;;;;;;;2.80;2.60;;;23.50;98.20;;;;;;5050730;28;20078;-86
2021/06/18 20:56:22;;;;;;;4.30;2.90;;;23.50;97.90;;;;;;5051452;28;20021;-86
2021/06/18 20:58:47;;;;;;;3.35;2.60;;;23.50;97.80;;;;;;5052142;28;20021;-86
2021/06/18 21:01:18;;;;;;;3.40;3.05;;;23.50;97.80;;;;;;5052336;28;20079;-92
2021/06/18 21:03:44;;;;;;;3.00;2.80;;;23.50;97.80;;;;;;5052906;28;20028;-92
2021/06/18 21:06:09;;;;;;;3.08;2.88;;;23.50;97.80;;;;;;5052890;28;20049;-93
2021/06/18 21:08:35;;;;;;;2.83;2.58;;;23.50;97.60;;;;;;5050758;28;20459;-92
2021/06/18 21:11:01;;;;;;;3.38;2.72;;;23.50;97.60;;;;;;5037035;28;20509;-92
2021/06/18 21:13:27;;;;;;;3.97;2.58;;;23.50;97.60;;;;;;5036025;28;20052;-88
2021/06/18 21:15:53;;;;;;;2.97;2.78;;;23.50;97.70;;;;;;5036887;28;20090;-87
2021/06/18 21:18:18;;;;;;;3.63;2.80;;;23.50;97.60;;;;;;5036001;28;20033;-87
2021/06/18 21:20:44;;;;;;;3.67;2.80;;;23.50;97.50;;;;;;5037537;28;20463;-88
2021/06/18 21:23:10;;;;;;;2.92;2.72;;;23.50;97.50;;;;;;5056954;28;20025;-87
2021/06/18 21:25:36;;;;;;;3.70;2.88;;;23.40;97.60;;;;;;5039385;28;20137;-89
2021/06/18 21:28:03;;;;;;;3.38;2.80;;;23.40;97.60;;;;;;5039394;28;20048;-88
2021/06/18 21:30:29;;;;;;;4.47;3.00;;;23.30;97.60;;;;;;5038986;28;20025;-88
2021/06/18 21:32:57;;;;;;;3.30;3.00;;;23.20;97.70;;;;;;5056802;28;20025;-87
2021/06/18 21:35:23;;;;;;;3.83;2.92;;;23.20;97.60;;;;;;5041641;28;20025;-87
2021/06/18 21:37:51;;;;;;;3.67;2.78;;;23.10;97.60;;;;;;5055627;28;20063;-85
2021/06/18 21:40:20;;;;;;;2.92;2.70;;;23.10;97.60;;;;;;5056573;28;20033;-86
2021/06/18 21:42:47;;;;;;;3.92;2.80;;;23.00;97.70;;;;;;5055348;28;20033;-87
2021/06/18 21:45:15;;;;;;;3.38;2.83;;;23.00;97.70;;;;;;5055564;28;20075;-86
2021/06/18 21:47:44;;;;;;;4.95;2.90;;;22.90;97.70;;;;;;5055329;28;20021;-87
2021/06/18 21:50:12;;;;;;;4.90;3.03;;;22.90;97.80;;;;;;5053778;28;20033;-86
2021/06/18 21:52:38;;;;;;;6.03;2.70;;;22.90;97.80;;;;;;5054826;28;20029;-86
2021/06/18 21:55:06;;;;;;;4.03;2.88;;;22.80;98.20;;;;;;5055345;28;20066;-86
2021/06/18 21:57:32;;;;;;;3.67;2.92;;;22.80;98.00;;;;;;5054941;28;20029;-86
2021/06/18 21:59:58;;;;;;;3.88;2.75;;;22.80;98.10;;;;;;5054827;28;20021;-85
2021/06/18 22:02:24;;;;;;;4.50;3.08;;;22.70;98.10;;;;;;5054709;28;20029;-86
2021/06/18 22:04:51;;;;;;;5.15;2.88;;;22.70;98.20;;;;;;5054212;28;20032;-86
2021/06/18 22:07:17;;;;;;;3.70;2.92;;;22.70;98.30;;;;;;5037317;28;20390;-86
2021/06/18 22:09:43;;;;;;;4.50;2.50;;;22.70;98.40;;;;;;5038499;28;20032;-86
2021/06/18 22:12:09;;;;;;;3.90;2.60;;;22.60;98.50;;;;;;5037985;28;20029;-86
2021/06/18 22:14:35;;;;;;;2.75;2.53;;;22.60;98.50;;;;;;5038316;28;20467;-86
2021/06/18 22:17:06;;;;;;;2.70;2.50;;;22.60;98.40;;;;;;5055631;28;20040;-86
2021/06/18 22:19:32;;;;;;;3.30;2.58;;;22.60;98.40;;;;;;5055874;28;20823;-86
2021/06/18 22:21:58;;;;;;;4.43;2.58;;;22.50;98.30;;;;;;5039424;28;20418;-86
2021/06/18 22:24:24;;;;;;;3.75;2.20;;;22.50;98.20;;;;;;5030779;28;20382;-86
2021/06/18 22:26:49;;;;;;;2.85;2.55;;;22.50;98.10;;;;;;5054276;28;20037;-86
2021/06/18 22:29:15;;;;;;;3.35;2.50;;;22.50;98.00;;;;;;5055545;28;20033;-86
2021/06/18 22:31:42;;;;;;;2.88;2.67;;;22.50;97.90;;;;;;5054174;28;20075;-86
2021/06/18 22:34:07;;;;;;;4.43;2.97;;;22.50;97.80;;;;;;5054429;28;20531;-87
2021/06/18 22:36:33;;;;;;;2.72;2.53;;;22.40;97.60;;;;;;5055692;28;20032;-86
2021/06/18 22:39:01;;;;;;;3.72;2.88;;;22.40;97.60;;;;;;5054118;28;20025;-86
2021/06/18 22:41:27;;;;;;;4.43;2.63;;;22.40;97.40;;;;;;5055395;28;20452;-86
2021/06/18 22:43:55;;;;;;;3.92;2.90;;;22.40;97.50;;;;;;5039208;28;20033;-86
2021/06/18 22:46:21;;;;;;;2.70;2.50;;;22.40;97.30;;;;;;5037391;28;20025;-86
2021/06/18 22:48:47;;;;;;;3.30;2.60;;;22.30;97.20;;;;;;5037366;28;20028;-86
2021/06/18 22:51:13;;;;;;;3.58;2.30;;;22.30;97.30;;;;;;5037372;28;20108;-86
2021/06/18 22:53:39;;;;;;;4.38;2.53;;;22.30;97.60;;;;;;5037263;28;20110;-86
2021/06/18 22:56:04;;;;;;;2.53;2.33;;;22.30;97.20;;;;;;5047986;28;20025;-86
2021/06/18 22:58:31;;;;;;;7.32;5.80;;;22.30;97.20;;;;;;5054174;28;20029;-86
2021/06/18 23:01:10;;;;;;;5.63;3.25;;;22.20;97.10;;;;;;5053732;28;20032;-84
2021/06/18 23:03:37;;;;;;;5.03;3.17;;;22.30;97.00;;;;;;5053821;28;20029;-87
2021/06/18 23:06:03;;;;;;;3.70;2.70;;;22.20;97.10;;;;;;5037193;28;20372;-87
2021/06/18 23:08:29;;;;;;;10.35;5.60;;;22.20;97.00;;;;;;5054796;28;20470;-85
